sensor_id;sensor_type;location;lat;lon;timestamp;temperature;humidity
66019;HTU21D;52787;51.084;5.816;2023-04-01T00:01:04;11.08;90.34
66019;HTU21D;52787;51.084;5.816;2023-04-01T00:03:31;11.10;90.36
66019;HTU21D;52787;51.084;5.816;2023-04-01T00:05:59;11.12;90.14
66019;HTU21D;52787;51.084;5.816;2023-04-01T00:08:27;11.10;90.18
66019;HTU21D;52787;51.084;5.816;2023-04-01T00:10:54;11.11;90.17
66019;HTU21D;52787;51.084;5.816;2023-04-01T00:13:21;11.11;90.51
66019;HTU21D;52787;51.084;5.816;2023-04-01T00:15:47;11.11;90.22
66019;HTU21D;52787;51.084;5.816;2023-04-01T00:18:15;11.11;89.97
66019;HTU21D;52787;51.084;5.816;2023-04-01T00:20:46;11.10;90.17
66019;HTU21D;52787;51.084;5.816;2023-04-01T00:23:14;11.09;90.27
66019;HTU21D;52787;51.084;5.816;2023-04-01T00:25:40;11.09;89.89
66019;HTU21D;52787;51.084;5.816;2023-04-01T00:28:06;11.05;90.13
66019;HTU21D;52787;51.084;5.816;2023-04-01T00:30:32;11.05;90.00
66019;HTU21D;52787;51.084;5.816;2023-04-01T00:32:58;11.08;90.04
66019;HTU21D;52787;51.084;5.816;2023-04-01T00:35:24;11.08;90.08
66019;HTU21D;52787;51.084;5.816;2023-04-01T00:37:50;11.08;90.06
66019;HTU21D;52787;51.084;5.816;2023-04-01T00:40:30;11.05;89.92
66019;HTU21D;52787;51.084;5.816;2023-04-01T00:42:58;11.07;89.87
66019;HTU21D;52787;51.084;5.816;2023-04-01T00:47:56;11.05;90.12
66019;HTU21D;52787;51.084;5.816;2023-04-01T00:50:27;11.07;90.02
66019;HTU21D;52787;51.084;5.816;2023-04-01T00:52:55;11.04;90.08
66019;HTU21D;52787;51.084;5.816;2023-04-01T00:55:23;11.04;90.09
66019;HTU21D;52787;51.084;5.816;2023-04-01T00:57:53;11.03;90.39
66019;HTU21D;52787;51.084;5.816;2023-04-01T01:00:19;11.03;90.28
66019;HTU21D;52787;51.084;5.816;2023-04-01T01:02:49;10.94;90.54
66019;HTU21D;52787;51.084;5.816;2023-04-01T01:05:26;10.98;90.60
66019;HTU21D;52787;51.084;5.816;2023-04-01T01:08:25;10.99;90.77
66019;HTU21D;52787;51.084;5.816;2023-04-01T01:10:55;10.99;90.76
66019;HTU21D;52787;51.084;5.816;2023-04-01T01:13:43;10.99;90.73
66019;HTU21D;52787;51.084;5.816;2023-04-01T01:16:30;10.97;90.67
66019;HTU21D;52787;51.084;5.816;2023-04-01T01:19:30;10.97;90.76
66019;HTU21D;52787;51.084;5.816;2023-04-01T01:22:36;10.99;90.63
66019;HTU21D;52787;51.084;5.816;2023-04-01T01:31:37;10.99;90.73
66019;HTU21D;52787;51.084;5.816;2023-04-01T01:37:27;10.94;91.15
66019;HTU21D;52787;51.084;5.816;2023-04-01T01:40:01;10.95;91.15
66019;HTU21D;52787;51.084;5.816;2023-04-01T01:42:31;10.96;91.21
66019;HTU21D;52787;51.084;5.816;2023-04-01T01:45:03;10.93;91.29
66019;HTU21D;52787;51.084;5.816;2023-04-01T01:47:33;10.90;91.52
66019;HTU21D;52787;51.084;5.816;2023-04-01T01:50:01;10.85;92.24
66019;HTU21D;52787;51.084;5.816;2023-04-01T01:52:29;10.87;92.05
66019;HTU21D;52787;51.084;5.816;2023-04-01T01:54:57;10.84;92.41
66019;HTU21D;52787;51.084;5.816;2023-04-01T01:57:28;10.84;92.49
66019;HTU21D;52787;51.084;5.816;2023-04-01T02:00:05;10.81;92.66
66019;HTU21D;52787;51.084;5.816;2023-04-01T02:02:45;10.80;92.75
66019;HTU21D;52787;51.084;5.816;2023-04-01T02:05:20;10.75;92.95
66019;HTU21D;52787;51.084;5.816;2023-04-01T02:08:12;10.71;93.33
66019;HTU21D;52787;51.084;5.816;2023-04-01T02:10:48;10.66;93.31
66019;HTU21D;52787;51.084;5.816;2023-04-01T02:13:32;10.64;93.62
66019;HTU21D;52787;51.084;5.816;2023-04-01T02:16:13;10.64;93.83
66019;HTU21D;52787;51.084;5.816;2023-04-01T02:18:44;10.63;93.75
66019;HTU21D;52787;51.084;5.816;2023-04-01T02:21:12;10.64;93.86
66019;HTU21D;52787;51.084;5.816;2023-04-01T02:23:39;10.62;93.76
66019;HTU21D;52787;51.084;5.816;2023-04-01T02:26:08;10.59;93.84
66019;HTU21D;52787;51.084;5.816;2023-04-01T02:28:38;10.63;93.75
66019;HTU21D;52787;51.084;5.816;2023-04-01T02:31:07;10.68;93.50
66019;HTU21D;52787;51.084;5.816;2023-04-01T02:33:38;10.67;93.59
66019;HTU21D;52787;51.084;5.816;2023-04-01T02:36:04;10.67;93.45
66019;HTU21D;52787;51.084;5.816;2023-04-01T02:38:31;10.69;93.37
66019;HTU21D;52787;51.084;5.816;2023-04-01T02:41:02;10.69;93.21
66019;HTU21D;52787;51.084;5.816;2023-04-01T02:43:28;10.72;93.24
66019;HTU21D;52787;51.084;5.816;2023-04-01T02:45:54;10.74;93.11
66019;HTU21D;52787;51.084;5.816;2023-04-01T02:48:20;10.74;93.03
66019;HTU21D;52787;51.084;5.816;2023-04-01T02:50:46;10.77;92.81
66019;HTU21D;52787;51.084;5.816;2023-04-01T02:53:12;10.78;92.83
66019;HTU21D;52787;51.084;5.816;2023-04-01T02:55:38;10.79;92.52
66019;HTU21D;52787;51.084;5.816;2023-04-01T02:58:04;10.81;92.39
66019;HTU21D;52787;51.084;5.816;2023-04-01T03:00:30;10.81;92.24
66019;HTU21D;52787;51.084;5.816;2023-04-01T03:02:56;10.80;92.14
66019;HTU21D;52787;51.084;5.816;2023-04-01T03:05:23;10.86;91.90
66019;HTU21D;52787;51.084;5.816;2023-04-01T03:07:49;10.86;91.76
66019;HTU21D;52787;51.084;5.816;2023-04-01T03:10:14;10.84;91.93
66019;HTU21D;52787;51.084;5.816;2023-04-01T03:12:40;10.84;91.91
66019;HTU21D;52787;51.084;5.816;2023-04-01T03:15:06;10.88;91.98
66019;HTU21D;52787;51.084;5.816;2023-04-01T03:17:34;10.87;92.02
66019;HTU21D;52787;51.084;5.816;2023-04-01T03:20:00;10.85;92.05
66019;HTU21D;52787;51.084;5.816;2023-04-01T03:22:25;10.86;92.05
66019;HTU21D;52787;51.084;5.816;2023-04-01T03:24:52;10.87;92.26
66019;HTU21D;52787;51.084;5.816;2023-04-01T03:27:17;10.84;92.44
66019;HTU21D;52787;51.084;5.816;2023-04-01T03:29:43;10.82;92.46
66019;HTU21D;52787;51.084;5.816;2023-04-01T03:32:09;10.84;92.39
66019;HTU21D;52787;51.084;5.816;2023-04-01T03:34:35;10.84;92.33
66019;HTU21D;52787;51.084;5.816;2023-04-01T03:37:00;10.85;92.24
66019;HTU21D;52787;51.084;5.816;2023-04-01T03:39:26;10.87;92.14
66019;HTU21D;52787;51.084;5.816;2023-04-01T03:41:52;10.90;92.03
66019;HTU21D;52787;51.084;5.816;2023-04-01T03:44:18;10.92;91.88
66019;HTU21D;52787;51.084;5.816;2023-04-01T03:46:43;10.95;91.81
66019;HTU21D;52787;51.084;5.816;2023-04-01T03:49:10;10.95;91.56
66019;HTU21D;52787;51.084;5.816;2023-04-01T03:51:42;10.94;91.42
66019;HTU21D;52787;51.084;5.816;2023-04-01T03:54:09;10.94;91.12
66019;HTU21D;52787;51.084;5.816;2023-04-01T03:56:36;10.95;90.91
66019;HTU21D;52787;51.084;5.816;2023-04-01T03:59:05;10.93;91.02
66019;HTU21D;52787;51.084;5.816;2023-04-01T04:01:31;10.89;90.96
66019;HTU21D;52787;51.084;5.816;2023-04-01T04:03:58;10.94;91.04
66019;HTU21D;52787;51.084;5.816;2023-04-01T04:06:26;10.94;91.18
66019;HTU21D;52787;51.084;5.816;2023-04-01T04:08:52;10.90;91.21
66019;HTU21D;52787;51.084;5.816;2023-04-01T04:11:18;10.90;91.31
66019;HTU21D;52787;51.084;5.816;2023-04-01T04:13:45;10.87;91.29
66019;HTU21D;52787;51.084;5.816;2023-04-01T04:16:13;10.89;91.34
66019;HTU21D;52787;51.084;5.816;2023-04-01T04:18:40;10.83;91.49
66019;HTU21D;52787;51.084;5.816;2023-04-01T04:21:06;10.82;91.67
66019;HTU21D;52787;51.084;5.816;2023-04-01T04:23:32;10.79;91.93
66019;HTU21D;52787;51.084;5.816;2023-04-01T04:26:01;10.78;92.01
66019;HTU21D;52787;51.084;5.816;2023-04-01T04:28:30;10.75;92.14
66019;HTU21D;52787;51.084;5.816;2023-04-01T04:30:56;10.78;92.23
66019;HTU21D;52787;51.084;5.816;2023-04-01T04:33:23;10.75;91.92
66019;HTU21D;52787;51.084;5.816;2023-04-01T04:35:50;10.78;91.89
66019;HTU21D;52787;51.084;5.816;2023-04-01T04:38:17;10.73;91.63
66019;HTU21D;52787;51.084;5.816;2023-04-01T04:40:43;10.77;91.69
66019;HTU21D;52787;51.084;5.816;2023-04-01T04:43:15;10.78;91.46
66019;HTU21D;52787;51.084;5.816;2023-04-01T04:45:44;10.79;91.50
66019;HTU21D;52787;51.084;5.816;2023-04-01T04:48:13;10.82;91.30
66019;HTU21D;52787;51.084;5.816;2023-04-01T04:50:45;10.82;91.04
66019;HTU21D;52787;51.084;5.816;2023-04-01T04:53:17;10.83;91.07
66019;HTU21D;52787;51.084;5.816;2023-04-01T04:55:48;10.83;90.89
66019;HTU21D;52787;51.084;5.816;2023-04-01T04:58:16;10.83;90.85
66019;HTU21D;52787;51.084;5.816;2023-04-01T05:00:43;10.80;90.94
66019;HTU21D;52787;51.084;5.816;2023-04-01T05:03:10;10.84;90.69
66019;HTU21D;52787;51.084;5.816;2023-04-01T05:05:37;10.83;91.14
66019;HTU21D;52787;51.084;5.816;2023-04-01T05:08:03;10.80;91.15
66019;HTU21D;52787;51.084;5.816;2023-04-01T05:10:30;10.82;91.04
66019;HTU21D;52787;51.084;5.816;2023-04-01T05:12:57;10.78;91.34
66019;HTU21D;52787;51.084;5.816;2023-04-01T05:15:24;10.79;91.16
66019;HTU21D;52787;51.084;5.816;2023-04-01T05:17:51;10.82;91.14
66019;HTU21D;52787;51.084;5.816;2023-04-01T05:20:17;10.84;90.90
66019;HTU21D;52787;51.084;5.816;2023-04-01T05:22:44;10.86;90.75
66019;HTU21D;52787;51.084;5.816;2023-04-01T05:25:10;10.88;90.60
66019;HTU21D;52787;51.084;5.816;2023-04-01T05:27:36;10.90;90.40
66019;HTU21D;52787;51.084;5.816;2023-04-01T05:30:03;10.85;90.17
66019;HTU21D;52787;51.084;5.816;2023-04-01T05:32:31;10.88;90.15
66019;HTU21D;52787;51.084;5.816;2023-04-01T05:34:57;10.92;89.97
66019;HTU21D;52787;51.084;5.816;2023-04-01T05:37:23;10.89;90.26
66019;HTU21D;52787;51.084;5.816;2023-04-01T05:39:49;10.90;90.37
66019;HTU21D;52787;51.084;5.816;2023-04-01T05:42:15;10.83;90.70
66019;HTU21D;52787;51.084;5.816;2023-04-01T05:44:41;10.84;90.86
66019;HTU21D;52787;51.084;5.816;2023-04-01T05:47:07;10.84;90.87
66019;HTU21D;52787;51.084;5.816;2023-04-01T05:49:34;10.81;91.26
66019;HTU21D;52787;51.084;5.816;2023-04-01T05:52:00;10.82;91.21
66019;HTU21D;52787;51.084;5.816;2023-04-01T05:54:26;10.84;91.03
66019;HTU21D;52787;51.084;5.816;2023-04-01T05:56:53;10.84;91.19
66019;HTU21D;52787;51.084;5.816;2023-04-01T05:59:19;10.83;90.80
66019;HTU21D;52787;51.084;5.816;2023-04-01T06:01:45;10.81;91.14
66019;HTU21D;52787;51.084;5.816;2023-04-01T06:04:16;10.82;91.21
66019;HTU21D;52787;51.084;5.816;2023-04-01T06:06:44;10.81;91.16
66019;HTU21D;52787;51.084;5.816;2023-04-01T06:09:16;10.81;91.07
66019;HTU21D;52787;51.084;5.816;2023-04-01T06:24:03;10.94;90.79
66019;HTU21D;52787;51.084;5.816;2023-04-01T06:26:44;10.98;90.50
66019;HTU21D;52787;51.084;5.816;2023-04-01T06:35:17;11.02;90.18
66019;HTU21D;52787;51.084;5.816;2023-04-01T06:49:19;11.00;90.53
66019;HTU21D;52787;51.084;5.816;2023-04-01T06:52:02;10.95;91.06
66019;HTU21D;52787;51.084;5.816;2023-04-01T06:54:49;10.94;91.45
66019;HTU21D;52787;51.084;5.816;2023-04-01T06:57:48;10.98;91.56
66019;HTU21D;52787;51.084;5.816;2023-04-01T07:05:34;10.93;91.25
66019;HTU21D;52787;51.084;5.816;2023-04-01T07:08:06;10.96;91.48
66019;HTU21D;52787;51.084;5.816;2023-04-01T07:13:10;10.98;91.53
66019;HTU21D;52787;51.084;5.816;2023-04-01T07:15:54;10.98;91.47
66019;HTU21D;52787;51.084;5.816;2023-04-01T07:18:30;11.00;91.34
66019;HTU21D;52787;51.084;5.816;2023-04-01T07:21:01;10.99;91.26
66019;HTU21D;52787;51.084;5.816;2023-04-01T07:23:36;10.94;91.27
66019;HTU21D;52787;51.084;5.816;2023-04-01T07:26:19;10.95;91.14
66019;HTU21D;52787;51.084;5.816;2023-04-01T07:28:46;10.92;91.06
66019;HTU21D;52787;51.084;5.816;2023-04-01T07:47:46;11.26;90.30
66019;HTU21D;52787;51.084;5.816;2023-04-01T07:51:09;11.37;89.94
66019;HTU21D;52787;51.084;5.816;2023-04-01T08:05:33;11.28;90.52
66019;HTU21D;52787;51.084;5.816;2023-04-01T08:14:13;11.33;90.01
66019;HTU21D;52787;51.084;5.816;2023-04-01T08:17:00;11.33;90.02
66019;HTU21D;52787;51.084;5.816;2023-04-01T08:22:30;11.44;89.63
66019;HTU21D;52787;51.084;5.816;2023-04-01T08:25:04;11.46;89.25
66019;HTU21D;52787;51.084;5.816;2023-04-01T08:27:51;11.47;89.05
66019;HTU21D;52787;51.084;5.816;2023-04-01T08:30:38;11.48;88.59
66019;HTU21D;52787;51.084;5.816;2023-04-01T08:33:36;11.55;88.70
66019;HTU21D;52787;51.084;5.816;2023-04-01T08:36:25;11.66;88.60
66019;HTU21D;52787;51.084;5.816;2023-04-01T08:39:12;11.77;88.15
66019;HTU21D;52787;51.084;5.816;2023-04-01T08:41:49;11.78;88.09
66019;HTU21D;52787;51.084;5.816;2023-04-01T08:59:23;11.85;88.57
66019;HTU21D;52787;51.084;5.816;2023-04-01T09:02:16;11.90;88.51
66019;HTU21D;52787;51.084;5.816;2023-04-01T09:18:47;11.81;88.94
66019;HTU21D;52787;51.084;5.816;2023-04-01T09:27:57;11.73;87.83
66019;HTU21D;52787;51.084;5.816;2023-04-01T09:31:00;11.77;88.12
66019;HTU21D;52787;51.084;5.816;2023-04-01T09:39:38;11.64;88.54
66019;HTU21D;52787;51.084;5.816;2023-04-01T09:44:57;11.75;88.47
66019;HTU21D;52787;51.084;5.816;2023-04-01T09:53:33;11.72;87.24
66019;HTU21D;52787;51.084;5.816;2023-04-01T09:59:18;11.78;87.87
66019;HTU21D;52787;51.084;5.816;2023-04-01T10:08:07;11.98;87.08
66019;HTU21D;52787;51.084;5.816;2023-04-01T10:35:05;12.21;86.03
66019;HTU21D;52787;51.084;5.816;2023-04-01T11:28:57;12.90;83.73
66019;HTU21D;52787;51.084;5.816;2023-04-01T11:41:02;12.87;83.07
66019;HTU21D;52787;51.084;5.816;2023-04-01T11:44:16;12.88;83.23
66019;HTU21D;52787;51.084;5.816;2023-04-01T11:47:12;12.89;83.78
66019;HTU21D;52787;51.084;5.816;2023-04-01T11:58:55;13.40;80.86
66019;HTU21D;52787;51.084;5.816;2023-04-01T12:05:31;13.61;80.52
66019;HTU21D;52787;51.084;5.816;2023-04-01T12:17:16;13.67;78.98
66019;HTU21D;52787;51.084;5.816;2023-04-01T12:32:40;14.04;79.02
66019;HTU21D;52787;51.084;5.816;2023-04-01T12:41:32;14.34;77.22
66019;HTU21D;52787;51.084;5.816;2023-04-01T12:56:18;15.01;75.67
66019;HTU21D;52787;51.084;5.816;2023-04-01T13:16:11;14.21;78.29
66019;HTU21D;52787;51.084;5.816;2023-04-01T13:43:23;12.86;82.42
66019;HTU21D;52787;51.084;5.816;2023-04-01T13:51:52;13.09;82.35
66019;HTU21D;52787;51.084;5.816;2023-04-01T14:01:05;13.00;83.03
66019;HTU21D;52787;51.084;5.816;2023-04-01T14:03:57;12.92;83.13
66019;HTU21D;52787;51.084;5.816;2023-04-01T14:06:56;12.89;83.65
66019;HTU21D;52787;51.084;5.816;2023-04-01T14:12:29;12.86;83.58
66019;HTU21D;52787;51.084;5.816;2023-04-01T14:19:30;12.79;83.78
66019;HTU21D;52787;51.084;5.816;2023-04-01T14:36:17;12.93;83.10
66019;HTU21D;52787;51.084;5.816;2023-04-01T14:47:48;12.84;82.47
66019;HTU21D;52787;51.084;5.816;2023-04-01T14:50:25;12.84;82.70
66019;HTU21D;52787;51.084;5.816;2023-04-01T14:58:11;12.84;82.62
66019;HTU21D;52787;51.084;5.816;2023-04-01T15:19:10;12.34;85.22
66019;HTU21D;52787;51.084;5.816;2023-04-01T15:21:44;12.35;85.22
66019;HTU21D;52787;51.084;5.816;2023-04-01T15:28:30;12.32;85.27
66019;HTU21D;52787;51.084;5.816;2023-04-01T15:36:57;12.28;85.10
66019;HTU21D;52787;51.084;5.816;2023-04-01T15:50:53;12.34;85.20
66019;HTU21D;52787;51.084;5.816;2023-04-01T15:56:24;12.31;84.46
66019;HTU21D;52787;51.084;5.816;2023-04-01T15:59:07;12.23;85.29
66019;HTU21D;52787;51.084;5.816;2023-04-01T16:05:57;12.08;85.06
66019;HTU21D;52787;51.084;5.816;2023-04-01T16:12:00;11.93;85.30
66019;HTU21D;52787;51.084;5.816;2023-04-01T16:20:46;11.92;85.96
66019;HTU21D;52787;51.084;5.816;2023-04-01T16:26:28;11.98;85.22
66019;HTU21D;52787;51.084;5.816;2023-04-01T16:35:35;11.87;86.63
66019;HTU21D;52787;51.084;5.816;2023-04-01T16:47:22;11.72;88.38
66019;HTU21D;52787;51.084;5.816;2023-04-01T16:49:59;11.70;88.40
66019;HTU21D;52787;51.084;5.816;2023-04-01T16:52:59;11.62;88.67
66019;HTU21D;52787;51.084;5.816;2023-04-01T16:55:45;11.66;88.89
66019;HTU21D;52787;51.084;5.816;2023-04-01T16:58:37;11.68;88.83
66019;HTU21D;52787;51.084;5.816;2023-04-01T17:07:15;11.67;88.80
66019;HTU21D;52787;51.084;5.816;2023-04-01T17:10:29;11.68;88.76
66019;HTU21D;52787;51.084;5.816;2023-04-01T17:22:23;11.60;87.87
66019;HTU21D;52787;51.084;5.816;2023-04-01T17:28:02;11.46;87.75
66019;HTU21D;52787;51.084;5.816;2023-04-01T17:31:04;11.44;87.85
66019;HTU21D;52787;51.084;5.816;2023-04-01T17:42:07;11.41;88.00
66019;HTU21D;52787;51.084;5.816;2023-04-01T17:50:36;11.30;88.42
66019;HTU21D;52787;51.084;5.816;2023-04-01T17:56:14;11.22;88.51
66019;HTU21D;52787;51.084;5.816;2023-04-01T17:59:02;11.25;88.64
66019;HTU21D;52787;51.084;5.816;2023-04-01T18:13:52;11.20;89.15
66019;HTU21D;52787;51.084;5.816;2023-04-01T18:22:53;11.25;88.81
66019;HTU21D;52787;51.084;5.816;2023-04-01T18:25:35;11.28;89.03
66019;HTU21D;52787;51.084;5.816;2023-04-01T18:39:30;11.13;89.18
66019;HTU21D;52787;51.084;5.816;2023-04-01T18:42:19;11.20;89.16
66019;HTU21D;52787;51.084;5.816;2023-04-01T18:54:29;11.26;88.97
66019;HTU21D;52787;51.084;5.816;2023-04-01T18:57:14;11.26;89.02
66019;HTU21D;52787;51.084;5.816;2023-04-01T18:59:55;11.29;89.25
66019;HTU21D;52787;51.084;5.816;2023-04-01T19:02:34;11.34;89.01
66019;HTU21D;52787;51.084;5.816;2023-04-01T19:05:32;11.36;88.92
66019;HTU21D;52787;51.084;5.816;2023-04-01T19:08:32;11.37;88.70
66019;HTU21D;52787;51.084;5.816;2023-04-01T19:11:23;11.34;88.54
66019;HTU21D;52787;51.084;5.816;2023-04-01T19:20:16;11.25;89.08
66019;HTU21D;52787;51.084;5.816;2023-04-01T19:23:12;11.24;89.38
66019;HTU21D;52787;51.084;5.816;2023-04-01T19:26:05;11.25;89.59
66019;HTU21D;52787;51.084;5.816;2023-04-01T19:34:25;11.26;89.90
66019;HTU21D;52787;51.084;5.816;2023-04-01T19:37:08;11.24;90.08
66019;HTU21D;52787;51.084;5.816;2023-04-01T19:40:23;11.24;90.20
66019;HTU21D;52787;51.084;5.816;2023-04-01T19:52:39;11.41;90.44
66019;HTU21D;52787;51.084;5.816;2023-04-01T19:58:25;11.40;90.82
66019;HTU21D;52787;51.084;5.816;2023-04-01T20:00:58;11.44;91.11
66019;HTU21D;52787;51.084;5.816;2023-04-01T20:03:40;11.48;91.08
66019;HTU21D;52787;51.084;5.816;2023-04-01T20:12:42;11.74;90.46
66019;HTU21D;52787;51.084;5.816;2023-04-01T20:15:43;11.79;90.39
66019;HTU21D;52787;51.084;5.816;2023-04-01T20:23:45;11.68;89.97
66019;HTU21D;52787;51.084;5.816;2023-04-01T20:26:26;11.53;90.08
66019;HTU21D;52787;51.084;5.816;2023-04-01T20:32:13;11.38;90.57
66019;HTU21D;52787;51.084;5.816;2023-04-01T20:35:18;11.28;90.37
66019;HTU21D;52787;51.084;5.816;2023-04-01T20:41:02;11.34;90.50
66019;HTU21D;52787;51.084;5.816;2023-04-01T20:44:03;11.39;90.47
66019;HTU21D;52787;51.084;5.816;2023-04-01T20:52:29;11.36;90.57
66019;HTU21D;52787;51.084;5.816;2023-04-01T20:55:15;11.39;90.38
66019;HTU21D;52787;51.084;5.816;2023-04-01T20:58:05;11.31;90.23
66019;HTU21D;52787;51.084;5.816;2023-04-01T21:06:46;11.20;90.30
66019;HTU21D;52787;51.084;5.816;2023-04-01T21:12:34;11.16;89.85
66019;HTU21D;52787;51.084;5.816;2023-04-01T21:24:29;10.96;90.07
66019;HTU21D;52787;51.084;5.816;2023-04-01T21:27:12;10.96;90.31
66019;HTU21D;52787;51.084;5.816;2023-04-01T21:30:28;10.93;90.53
66019;HTU21D;52787;51.084;5.816;2023-04-01T21:36:20;10.97;90.39
66019;HTU21D;52787;51.084;5.816;2023-04-01T21:47:44;10.74;90.56
66019;HTU21D;52787;51.084;5.816;2023-04-01T21:57:11;10.77;90.66
66019;HTU21D;52787;51.084;5.816;2023-04-01T22:03:20;10.70;90.11
66019;HTU21D;52787;51.084;5.816;2023-04-01T22:08:56;10.62;89.49
66019;HTU21D;52787;51.084;5.816;2023-04-01T22:17:28;10.57;89.41
66019;HTU21D;52787;51.084;5.816;2023-04-01T22:20:14;10.52;89.21
66019;HTU21D;52787;51.084;5.816;2023-04-01T22:26:27;10.52;89.22
66019;HTU21D;52787;51.084;5.816;2023-04-01T22:29:34;10.35;89.21
66019;HTU21D;52787;51.084;5.816;2023-04-01T22:32:24;10.30;89.88
66019;HTU21D;52787;51.084;5.816;2023-04-01T22:41:08;10.34;89.71
66019;HTU21D;52787;51.084;5.816;2023-04-01T22:44:03;10.18;89.57
66019;HTU21D;52787;51.084;5.816;2023-04-01T22:46:53;10.12;90.05
66019;HTU21D;52787;51.084;5.816;2023-04-01T22:49:29;10.00;90.24
66019;HTU21D;52787;51.084;5.816;2023-04-01T22:52:20;9.98;90.48
66019;HTU21D;52787;51.084;5.816;2023-04-01T22:54:56;10.03;90.31
66019;HTU21D;52787;51.084;5.816;2023-04-01T22:57:52;10.07;90.23
66019;HTU21D;52787;51.084;5.816;2023-04-01T23:00:26;10.10;89.95
66019;HTU21D;52787;51.084;5.816;2023-04-01T23:06:04;10.19;89.88
66019;HTU21D;52787;51.084;5.816;2023-04-01T23:11:55;10.25;89.55
66019;HTU21D;52787;51.084;5.816;2023-04-01T23:14:53;10.26;89.29
66019;HTU21D;52787;51.084;5.816;2023-04-01T23:17:42;10.19;89.06
66019;HTU21D;52787;51.084;5.816;2023-04-01T23:28:57;9.94;88.47
66019;HTU21D;52787;51.084;5.816;2023-04-01T23:31:39;9.93;88.60
66019;HTU21D;52787;51.084;5.816;2023-04-01T23:36:49;9.64;89.92
66019;HTU21D;52787;51.084;5.816;2023-04-01T23:39:32;9.56;90.12
66019;HTU21D;52787;51.084;5.816;2023-04-01T23:42:29;9.51;90.47
66019;HTU21D;52787;51.084;5.816;2023-04-01T23:44:59;9.49;90.70
66019;HTU21D;52787;51.084;5.816;2023-04-01T23:47:34;9.40;91.36
66019;HTU21D;52787;51.084;5.816;2023-04-01T23:50:11;9.48;91.21
66019;HTU21D;52787;51.084;5.816;2023-04-01T23:53:16;9.50;91.39
66019;HTU21D;52787;51.084;5.816;2023-04-01T23:55:44;9.61;91.27
66019;HTU21D;52787;51.084;5.816;2023-04-01T23:58:26;9.69;91.02
